sensor_id;sensor_type;location;lat;lon;timestamp;pressure;altitude;pressure_sealevel;temperature;humidity
3160;BME280;1591;51.486;7.146;2022-07-29T00:01:58;72549.44;;;19.37;97.68
3160;BME280;1591;51.486;7.146;2022-07-29T00:04:25;72551.75;;;19.29;97.95
3160;BME280;1591;51.486;7.146;2022-07-29T00:06:52;72542.75;;;19.26;98.66
3160;BME280;1591;51.486;7.146;2022-07-29T00:09:19;72538.09;;;19.22;98.17
3160;BME280;1591;51.486;7.146;2022-07-29T00:11:52;72531.13;;;19.16;98.63
3160;BME280;1591;51.486;7.146;2022-07-29T00:14:20;72555.91;;;19.14;99.02
3160;BME280;1591;51.486;7.146;2022-07-29T00:16:48;72515.41;;;19.12;98.87
3160;BME280;1591;51.486;7.146;2022-07-29T00:19:15;72516.88;;;19.09;99.20
3160;BME280;1591;51.486;7.146;2022-07-29T00:21:42;72522.84;;;19.07;99.14
3160;BME280;1591;51.486;7.146;2022-07-29T00:24:11;72525.63;;;19.07;99.37
3160;BME280;1591;51.486;7.146;2022-07-29T00:26:45;72513.38;;;19.06;100.00
3160;BME280;1591;51.486;7.146;2022-07-29T00:29:16;72518.94;;;19.06;100.00
3160;BME280;1591;51.486;7.146;2022-07-29T00:31:43;72505.09;;;19.06;100.00
3160;BME280;1591;51.486;7.146;2022-07-29T00:34:10;72517.75;;;19.04;100.00
3160;BME280;1591;51.486;7.146;2022-07-29T00:36:53;72509.91;;;19.02;100.00
3160;BME280;1591;51.486;7.146;2022-07-29T00:39:21;72517.16;;;19.04;100.00
3160;BME280;1591;51.486;7.146;2022-07-29T00:41:49;72510.34;;;19.00;100.00
3160;BME280;1591;51.486;7.146;2022-07-29T00:44:19;72520.81;;;19.00;100.00
3160;BME280;1591;51.486;7.146;2022-07-29T00:46:48;72504.66;;;18.98;100.00
3160;BME280;1591;51.486;7.146;2022-07-29T00:49:19;72503.50;;;18.97;100.00
3160;BME280;1591;51.486;7.146;2022-07-29T00:51:47;72501.19;;;18.95;100.00
3160;BME280;1591;51.486;7.146;2022-07-29T00:54:16;72499.88;;;18.91;100.00
3160;BME280;1591;51.486;7.146;2022-07-29T00:56:44;72502.97;;;18.87;100.00
3160;BME280;1591;51.486;7.146;2022-07-29T00:59:11;72485.50;;;18.81;100.00
3160;BME280;1591;51.486;7.146;2022-07-29T01:01:39;72484.78;;;18.78;100.00
3160;BME280;1591;51.486;7.146;2022-07-29T01:04:07;72482.47;;;18.76;100.00
3160;BME280;1591;51.486;7.146;2022-07-29T01:06:34;72486.25;;;18.75;100.00
3160;BME280;1591;51.486;7.146;2022-07-29T01:09:02;72473.19;;;18.68;100.00
3160;BME280;1591;51.486;7.146;2022-07-29T01:11:29;72481.19;;;18.63;100.00
3160;BME280;1591;51.486;7.146;2022-07-29T01:13:56;72464.31;;;18.58;100.00
3160;BME280;1591;51.486;7.146;2022-07-29T01:16:29;72456.91;;;18.54;100.00
3160;BME280;1591;51.486;7.146;2022-07-29T01:19:06;72454.44;;;18.50;100.00
3160;BME280;1591;51.486;7.146;2022-07-29T01:21:50;72451.41;;;18.45;100.00
3160;BME280;1591;51.486;7.146;2022-07-29T01:25:02;72437.84;;;18.40;100.00
3160;BME280;1591;51.486;7.146;2022-07-29T01:27:48;72443.81;;;18.38;100.00
3160;BME280;1591;51.486;7.146;2022-07-29T01:30:19;72438.88;;;18.39;100.00
3160;BME280;1591;51.486;7.146;2022-07-29T01:33:11;72443.25;;;18.38;100.00
3160;BME280;1591;51.486;7.146;2022-07-29T01:36:03;72432.03;;;18.35;100.00
3160;BME280;1591;51.486;7.146;2022-07-29T01:38:33;72439.78;;;18.35;100.00
3160;BME280;1591;51.486;7.146;2022-07-29T01:41:06;72438.59;;;18.34;100.00
3160;BME280;1591;51.486;7.146;2022-07-29T01:43:49;72439.63;;;18.32;100.00
3160;BME280;1591;51.486;7.146;2022-07-29T01:46:24;72432.38;;;18.31;100.00
3160;BME280;1591;51.486;7.146;2022-07-29T01:49:02;72442.84;;;18.30;100.00
3160;BME280;1591;51.486;7.146;2022-07-29T01:51:38;72437.75;;;18.28;100.00
3160;BME280;1591;51.486;7.146;2022-07-29T01:54:13;72424.38;;;18.26;100.00
3160;BME280;1591;51.486;7.146;2022-07-29T01:56:43;72422.50;;;18.22;100.00
3160;BME280;1591;51.486;7.146;2022-07-29T01:59:11;72415.22;;;18.20;100.00
3160;BME280;1591;51.486;7.146;2022-07-29T02:01:41;72415.09;;;18.18;100.00
3160;BME280;1591;51.486;7.146;2022-07-29T02:04:12;72417.25;;;18.17;100.00
3160;BME280;1591;51.486;7.146;2022-07-29T02:06:43;72408.38;;;18.17;100.00
3160;BME280;1591;51.486;7.146;2022-07-29T02:09:12;72441.53;;;18.17;100.00
3160;BME280;1591;51.486;7.146;2022-07-29T02:11:49;72417.13;;;18.15;100.00
3160;BME280;1591;51.486;7.146;2022-07-29T02:14:21;72409.84;;;18.13;100.00
3160;BME280;1591;51.486;7.146;2022-07-29T02:16:53;72424.69;;;18.12;100.00
3160;BME280;1591;51.486;7.146;2022-07-29T02:19:23;72417.56;;;18.13;100.00
3160;BME280;1591;51.486;7.146;2022-07-29T02:21:56;72421.34;;;18.11;100.00
3160;BME280;1591;51.486;7.146;2022-07-29T02:24:27;72411.88;;;18.10;100.00
3160;BME280;1591;51.486;7.146;2022-07-29T02:26:57;72407.09;;;18.04;100.00
3160;BME280;1591;51.486;7.146;2022-07-29T02:29:28;72391.56;;;18.02;100.00
3160;BME280;1591;51.486;7.146;2022-07-29T02:31:59;72402.47;;;18.00;100.00
3160;BME280;1591;51.486;7.146;2022-07-29T02:34:28;72400.72;;;17.98;100.00
3160;BME280;1591;51.486;7.146;2022-07-29T02:36:56;72391.00;;;17.92;100.00
3160;BME280;1591;51.486;7.146;2022-07-29T02:39:25;72385.31;;;17.90;100.00
3160;BME280;1591;51.486;7.146;2022-07-29T02:41:59;72388.97;;;17.86;100.00
3160;BME280;1591;51.486;7.146;2022-07-29T02:44:28;72389.28;;;17.81;100.00
3160;BME280;1591;51.486;7.146;2022-07-29T02:47:07;72369.22;;;17.78;100.00
3160;BME280;1591;51.486;7.146;2022-07-29T02:49:41;72351.38;;;17.65;100.00
3160;BME280;1591;51.486;7.146;2022-07-29T02:52:18;72346.59;;;17.59;100.00
3160;BME280;1591;51.486;7.146;2022-07-29T02:54:51;72335.25;;;17.44;100.00
3160;BME280;1591;51.486;7.146;2022-07-29T02:57:26;72314.34;;;17.35;100.00
3160;BME280;1591;51.486;7.146;2022-07-29T02:59:58;72328.00;;;17.33;100.00
3160;BME280;1591;51.486;7.146;2022-07-29T03:02:40;72341.34;;;17.35;100.00
3160;BME280;1591;51.486;7.146;2022-07-29T03:05:17;72329.44;;;17.39;100.00
3160;BME280;1591;51.486;7.146;2022-07-29T03:07:49;72334.81;;;17.46;100.00
3160;BME280;1591;51.486;7.146;2022-07-29T03:10:19;72299.38;;;17.54;100.00
3160;BME280;1591;51.486;7.146;2022-07-29T03:12:47;72362.41;;;17.56;100.00
3160;BME280;1591;51.486;7.146;2022-07-29T03:15:15;72347.88;;;17.62;100.00
3160;BME280;1591;51.486;7.146;2022-07-29T03:17:44;72361.69;;;17.72;100.00
3160;BME280;1591;51.486;7.146;2022-07-29T03:20:13;72372.56;;;17.79;100.00
3160;BME280;1591;51.486;7.146;2022-07-29T03:22:43;72372.41;;;17.76;100.00
3160;BME280;1591;51.486;7.146;2022-07-29T03:25:16;72382.00;;;17.80;100.00
3160;BME280;1591;51.486;7.146;2022-07-29T03:27:44;72373.72;;;17.80;100.00
3160;BME280;1591;51.486;7.146;2022-07-29T03:30:13;72380.41;;;17.81;100.00
3160;BME280;1591;51.486;7.146;2022-07-29T03:32:41;72347.44;;;17.64;100.00
3160;BME280;1591;51.486;7.146;2022-07-29T03:35:10;72354.97;;;17.71;100.00
3160;BME280;1591;51.486;7.146;2022-07-29T03:37:42;72359.81;;;17.68;100.00
3160;BME280;1591;51.486;7.146;2022-07-29T03:40:17;72357.34;;;17.63;100.00
3160;BME280;1591;51.486;7.146;2022-07-29T03:42:46;72363.41;;;17.64;100.00
3160;BME280;1591;51.486;7.146;2022-07-29T03:45:18;72359.66;;;17.65;100.00
3160;BME280;1591;51.486;7.146;2022-07-29T03:47:51;72349.19;;;17.66;100.00
3160;BME280;1591;51.486;7.146;2022-07-29T03:50:21;72379.25;;;17.70;100.00
3160;BME280;1591;51.486;7.146;2022-07-29T03:52:49;72371.25;;;17.75;100.00
3160;BME280;1591;51.486;7.146;2022-07-29T03:55:18;72370.38;;;17.79;100.00
3160;BME280;1591;51.486;7.146;2022-07-29T03:57:47;72385.47;;;17.83;100.00
3160;BME280;1591;51.486;7.146;2022-07-29T04:00:16;72383.16;;;17.90;100.00
3160;BME280;1591;51.486;7.146;2022-07-29T04:02:45;72378.22;;;17.91;100.00
3160;BME280;1591;51.486;7.146;2022-07-29T04:05:14;72386.91;;;17.89;100.00
3160;BME280;1591;51.486;7.146;2022-07-29T04:07:45;72387.09;;;17.82;100.00
3160;BME280;1591;51.486;7.146;2022-07-29T04:10:13;72378.50;;;17.86;100.00
3160;BME280;1591;51.486;7.146;2022-07-29T04:12:42;72387.94;;;17.87;100.00
3160;BME280;1591;51.486;7.146;2022-07-29T04:15:11;72386.34;;;17.88;100.00
3160;BME280;1591;51.486;7.146;2022-07-29T04:17:40;72384.16;;;17.89;100.00
3160;BME280;1591;51.486;7.146;2022-07-29T04:20:09;72392.88;;;17.87;100.00
3160;BME280;1591;51.486;7.146;2022-07-29T04:22:39;72400.72;;;17.89;100.00
3160;BME280;1591;51.486;7.146;2022-07-29T04:25:08;72387.66;;;17.92;100.00
3160;BME280;1591;51.486;7.146;2022-07-29T04:27:36;72400.31;;;17.91;100.00
3160;BME280;1591;51.486;7.146;2022-07-29T04:30:23;72384.59;;;17.87;100.00
3160;BME280;1591;51.486;7.146;2022-07-29T04:32:52;72378.06;;;17.79;100.00
3160;BME280;1591;51.486;7.146;2022-07-29T04:35:20;72353.53;;;17.65;100.00
3160;BME280;1591;51.486;7.146;2022-07-29T04:37:48;72348.75;;;17.48;100.00
3160;BME280;1591;51.486;7.146;2022-07-29T04:40:19;72320.31;;;17.33;100.00
3160;BME280;1591;51.486;7.146;2022-07-29T04:42:46;72299.00;;;17.08;100.00
3160;BME280;1591;51.486;7.146;2022-07-29T04:45:15;72267.38;;;16.85;100.00
3160;BME280;1591;51.486;7.146;2022-07-29T04:47:42;72243.75;;;16.67;100.00
3160;BME280;1591;51.486;7.146;2022-07-29T04:50:09;72242.00;;;16.56;100.00
3160;BME280;1591;51.486;7.146;2022-07-29T04:52:37;72226.63;;;16.57;100.00
3160;BME280;1591;51.486;7.146;2022-07-29T04:55:06;72261.16;;;16.63;100.00
3160;BME280;1591;51.486;7.146;2022-07-29T04:57:35;72209.63;;;16.78;100.00
3160;BME280;1591;51.486;7.146;2022-07-29T05:00:05;72283.63;;;16.90;100.00
3160;BME280;1591;51.486;7.146;2022-07-29T05:02:33;72286.94;;;17.09;100.00
3160;BME280;1591;51.486;7.146;2022-07-29T05:05:01;72299.00;;;17.17;100.00
3160;BME280;1591;51.486;7.146;2022-07-29T05:07:30;72318.72;;;17.25;100.00
3160;BME280;1591;51.486;7.146;2022-07-29T05:09:57;72325.09;;;17.30;100.00
3160;BME280;1591;51.486;7.146;2022-07-29T05:12:25;72274.53;;;17.34;100.00
3160;BME280;1591;51.486;7.146;2022-07-29T05:14:57;72325.69;;;17.40;100.00
3160;BME280;1591;51.486;7.146;2022-07-29T05:17:24;72332.50;;;17.44;100.00
3160;BME280;1591;51.486;7.146;2022-07-29T05:19:51;72340.78;;;17.54;100.00
3160;BME280;1591;51.486;7.146;2022-07-29T05:22:19;72342.09;;;17.57;100.00
3160;BME280;1591;51.486;7.146;2022-07-29T05:24:49;72352.97;;;17.55;100.00
3160;BME280;1591;51.486;7.146;2022-07-29T05:27:18;72343.09;;;17.56;100.00
3160;BME280;1591;51.486;7.146;2022-07-29T05:29:46;72355.00;;;17.61;100.00
3160;BME280;1591;51.486;7.146;2022-07-29T05:32:15;72356.31;;;17.65;100.00
3160;BME280;1591;51.486;7.146;2022-07-29T05:34:44;72350.34;;;17.67;100.00
3160;BME280;1591;51.486;7.146;2022-07-29T05:37:12;72364.28;;;17.69;100.00
3160;BME280;1591;51.486;7.146;2022-07-29T05:39:43;72356.00;;;17.69;100.00
3160;BME280;1591;51.486;7.146;2022-07-29T05:42:10;72364.72;;;17.67;100.00
3160;BME280;1591;51.486;7.146;2022-07-29T05:44:41;72347.59;;;17.57;100.00
3160;BME280;1591;51.486;7.146;2022-07-29T05:47:08;72347.31;;;17.52;100.00
3160;BME280;1591;51.486;7.146;2022-07-29T05:49:37;72336.72;;;17.50;100.00
3160;BME280;1591;51.486;7.146;2022-07-29T05:52:05;72335.97;;;17.47;100.00
3160;BME280;1591;51.486;7.146;2022-07-29T05:54:32;72331.75;;;17.41;100.00
3160;BME280;1591;51.486;7.146;2022-07-29T05:57:03;72328.28;;;17.38;100.00
3160;BME280;1591;51.486;7.146;2022-07-29T05:59:31;72320.75;;;17.31;100.00
3160;BME280;1591;51.486;7.146;2022-07-29T06:01:58;72317.84;;;17.29;100.00
3160;BME280;1591;51.486;7.146;2022-07-29T06:04:26;72319.88;;;17.26;100.00
3160;BME280;1591;51.486;7.146;2022-07-29T06:06:54;72314.50;;;17.28;100.00
3160;BME280;1591;51.486;7.146;2022-07-29T06:09:22;72324.22;;;17.34;100.00
3160;BME280;1591;51.486;7.146;2022-07-29T06:11:56;72326.53;;;17.36;100.00
3160;BME280;1591;51.486;7.146;2022-07-29T06:14:24;72339.03;;;17.42;100.00
3160;BME280;1591;51.486;7.146;2022-07-29T06:16:52;72339.88;;;17.58;100.00
3160;BME280;1591;51.486;7.146;2022-07-29T06:19:19;72365.75;;;17.66;100.00
3160;BME280;1591;51.486;7.146;2022-07-29T06:21:49;72375.16;;;17.76;100.00
3160;BME280;1591;51.486;7.146;2022-07-29T06:24:18;72386.66;;;17.84;100.00
3160;BME280;1591;51.486;7.146;2022-07-29T06:26:47;72383.75;;;17.91;100.00
3160;BME280;1591;51.486;7.146;2022-07-29T06:29:14;72394.34;;;17.93;100.00
3160;BME280;1591;51.486;7.146;2022-07-29T06:31:42;72397.66;;;17.93;100.00
3160;BME280;1591;51.486;7.146;2022-07-29T06:34:09;72401.75;;;17.97;100.00
3160;BME280;1591;51.486;7.146;2022-07-29T06:36:37;72404.78;;;18.02;100.00
3160;BME280;1591;51.486;7.146;2022-07-29T06:39:05;72410.59;;;18.07;100.00
3160;BME280;1591;51.486;7.146;2022-07-29T06:41:34;72403.75;;;18.13;100.00
3160;BME280;1591;51.486;7.146;2022-07-29T06:44:03;72427.00;;;18.14;100.00
3160;BME280;1591;51.486;7.146;2022-07-29T06:46:37;72424.69;;;18.12;100.00
3160;BME280;1591;51.486;7.146;2022-07-29T06:49:05;72413.94;;;18.07;100.00
3160;BME280;1591;51.486;7.146;2022-07-29T06:51:32;72410.16;;;18.09;100.00
3160;BME280;1591;51.486;7.146;2022-07-29T06:53:59;72414.50;;;18.08;100.00
3160;BME280;1591;51.486;7.146;2022-07-29T06:56:26;72407.38;;;18.09;100.00
3160;BME280;1591;51.486;7.146;2022-07-29T06:58:55;72408.09;;;18.21;100.00
3160;BME280;1591;51.486;7.146;2022-07-29T07:01:22;72427.25;;;18.38;100.00
3160;BME280;1591;51.486;7.146;2022-07-29T07:03:49;72464.59;;;18.54;100.00
3160;BME280;1591;51.486;7.146;2022-07-29T07:06:18;72466.34;;;18.65;100.00
3160;BME280;1591;51.486;7.146;2022-07-29T07:08:45;72483.75;;;18.80;100.00
3160;BME280;1591;51.486;7.146;2022-07-29T07:11:12;72511.84;;;18.87;100.00
3160;BME280;1591;51.486;7.146;2022-07-29T07:13:39;72500.16;;;18.96;100.00
3160;BME280;1591;51.486;7.146;2022-07-29T07:16:08;72528.38;;;19.16;100.00
3160;BME280;1591;51.486;7.146;2022-07-29T07:18:37;72571.53;;;19.46;100.00
3160;BME280;1591;51.486;7.146;2022-07-29T07:21:05;72561.34;;;19.52;100.00
3160;BME280;1591;51.486;7.146;2022-07-29T07:23:34;72595.50;;;19.69;100.00
3160;BME280;1591;51.486;7.146;2022-07-29T07:26:03;72597.97;;;19.74;100.00
3160;BME280;1591;51.486;7.146;2022-07-29T07:28:34;72578.50;;;19.62;100.00
3160;BME280;1591;51.486;7.146;2022-07-29T07:31:01;72585.06;;;19.60;100.00
3160;BME280;1591;51.486;7.146;2022-07-29T07:33:30;72570.94;;;19.55;100.00
3160;BME280;1591;51.486;7.146;2022-07-29T07:35:57;72584.63;;;19.53;100.00
3160;BME280;1591;51.486;7.146;2022-07-29T07:38:24;72584.28;;;19.67;100.00
3160;BME280;1591;51.486;7.146;2022-07-29T07:40:51;72591.28;;;19.73;100.00
3160;BME280;1591;51.486;7.146;2022-07-29T07:43:18;72587.78;;;19.70;100.00
3160;BME280;1591;51.486;7.146;2022-07-29T07:45:46;72599.59;;;19.73;100.00
3160;BME280;1591;51.486;7.146;2022-07-29T07:48:14;72628.41;;;19.83;100.00
3160;BME280;1591;51.486;7.146;2022-07-29T07:50:43;72589.81;;;19.76;100.00
3160;BME280;1591;51.486;7.146;2022-07-29T07:53:10;72588.63;;;19.75;100.00
3160;BME280;1591;51.486;7.146;2022-07-29T07:55:40;72608.59;;;19.86;100.00
3160;BME280;1591;51.486;7.146;2022-07-29T07:58:07;72619.19;;;19.97;100.00
3160;BME280;1591;51.486;7.146;2022-07-29T08:00:35;72632.13;;;20.01;100.00
3160;BME280;1591;51.486;7.146;2022-07-29T08:03:03;72612.06;;;19.89;100.00
3160;BME280;1591;51.486;7.146;2022-07-29T08:05:31;72601.03;;;19.79;100.00
3160;BME280;1591;51.486;7.146;2022-07-29T08:08:00;72639.03;;;19.95;100.00
3160;BME280;1591;51.486;7.146;2022-07-29T08:10:27;72618.13;;;19.99;100.00
3160;BME280;1591;51.486;7.146;2022-07-29T08:13:12;72628.47;;;20.05;100.00
3160;BME280;1591;51.486;7.146;2022-07-29T08:15:39;72628.47;;;20.05;100.00
3160;BME280;1591;51.486;7.146;2022-07-29T08:18:09;72640.28;;;20.08;100.00
3160;BME280;1591;51.486;7.146;2022-07-29T08:20:36;72640.22;;;20.18;100.00
3160;BME280;1591;51.486;7.146;2022-07-29T08:23:08;72663.97;;;20.36;100.00
3160;BME280;1591;51.486;7.146;2022-07-29T08:25:35;72672.25;;;20.45;100.00
3160;BME280;1591;51.486;7.146;2022-07-29T08:28:04;72665.97;;;20.42;100.00
3160;BME280;1591;51.486;7.146;2022-07-29T08:30:31;72659.75;;;20.30;100.00
3160;BME280;1591;51.486;7.146;2022-07-29T08:32:59;72659.75;;;20.30;100.00
3160;BME280;1591;51.486;7.146;2022-07-29T08:35:28;72653.38;;;20.24;100.00
3160;BME280;1591;51.486;7.146;2022-07-29T08:37:56;72641.13;;;20.23;100.00
3160;BME280;1591;51.486;7.146;2022-07-29T08:40:26;72636.44;;;20.19;100.00
3160;BME280;1591;51.486;7.146;2022-07-29T08:42:53;72637.06;;;20.10;100.00
3160;BME280;1591;51.486;7.146;2022-07-29T08:45:23;72628.22;;;20.00;100.00
3160;BME280;1591;51.486;7.146;2022-07-29T08:47:52;72616.13;;;19.92;100.00
3160;BME280;1591;51.486;7.146;2022-07-29T08:50:20;72606.69;;;19.81;100.00
3160;BME280;1591;51.486;7.146;2022-07-29T08:52:47;72607.41;;;19.85;100.00
3160;BME280;1591;51.486;7.146;2022-07-29T08:55:16;72627.94;;;19.95;100.00
3160;BME280;1591;51.486;7.146;2022-07-29T08:57:45;72628.78;;;20.01;100.00
3160;BME280;1591;51.486;7.146;2022-07-29T09:00:14;72633.56;;;20.07;100.00
3160;BME280;1591;51.486;7.146;2022-07-29T09:02:46;72634.88;;;20.11;100.00
3160;BME280;1591;51.486;7.146;2022-07-29T09:05:17;72630.22;;;20.07;100.00
3160;BME280;1591;51.486;7.146;2022-07-29T09:07:45;72611.16;;;19.93;100.00
3160;BME280;1591;51.486;7.146;2022-07-29T09:10:13;72599.81;;;19.88;100.00
3160;BME280;1591;51.486;7.146;2022-07-29T09:12:40;72611.34;;;19.86;100.00
3160;BME280;1591;51.486;7.146;2022-07-29T09:15:10;72615.56;;;19.92;100.00
3160;BME280;1591;51.486;7.146;2022-07-29T09:17:41;72612.66;;;19.89;100.00
3160;BME280;1591;51.486;7.146;2022-07-29T09:20:10;72612.13;;;19.79;100.00
3160;BME280;1591;51.486;7.146;2022-07-29T09:22:38;72600.31;;;19.76;100.00
3160;BME280;1591;51.486;7.146;2022-07-29T09:25:06;72589.13;;;19.64;100.00
3160;BME280;1591;51.486;7.146;2022-07-29T09:27:33;72577.19;;;19.58;100.00
3160;BME280;1591;51.486;7.146;2022-07-29T09:30:04;72578.34;;;19.59;100.00
3160;BME280;1591;51.486;7.146;2022-07-29T09:32:33;72575.88;;;19.55;100.00
3160;BME280;1591;51.486;7.146;2022-07-29T09:35:23;72577.06;;;19.56;100.00
3160;BME280;1591;51.486;7.146;2022-07-29T09:37:51;72572.41;;;19.52;100.00
3160;BME280;1591;51.486;7.146;2022-07-29T09:40:21;72543.91;;;19.27;100.00
3160;BME280;1591;51.486;7.146;2022-07-29T09:42:50;72509.50;;;18.95;100.00
3160;BME280;1591;51.486;7.146;2022-07-29T09:45:29;72489.91;;;18.71;100.00
3160;BME280;1591;51.486;7.146;2022-07-29T09:47:58;72471.88;;;18.65;100.00
3160;BME280;1591;51.486;7.146;2022-07-29T09:50:39;72465.94;;;18.57;100.00
3160;BME280;1591;51.486;7.146;2022-07-29T09:53:07;72448.03;;;18.54;100.00
3160;BME280;1591;51.486;7.146;2022-07-29T09:55:47;72451.09;;;18.49;100.00
3160;BME280;1591;51.486;7.146;2022-07-29T09:58:16;72447.31;;;18.51;100.00
3160;BME280;1591;51.486;7.146;2022-07-29T10:00:46;72446.72;;;18.50;100.00
3160;BME280;1591;51.486;7.146;2022-07-29T10:03:16;72447.63;;;18.46;100.00
3160;BME280;1591;51.486;7.146;2022-07-29T10:05:44;72449.19;;;18.55;100.00
3160;BME280;1591;51.486;7.146;2022-07-29T10:08:12;72478.13;;;18.68;100.00
3160;BME280;1591;51.486;7.146;2022-07-29T10:10:41;72502.25;;;18.84;100.00
3160;BME280;1591;51.486;7.146;2022-07-29T10:13:11;72511.50;;;19.01;100.00
3160;BME280;1591;51.486;7.146;2022-07-29T10:15:42;72516.47;;;19.01;100.00
3160;BME280;1591;51.486;7.146;2022-07-29T10:18:16;72525.44;;;19.14;100.00
3160;BME280;1591;51.486;7.146;2022-07-29T10:20:45;72539.13;;;19.21;100.00
3160;BME280;1591;51.486;7.146;2022-07-29T10:23:13;72561.09;;;19.28;100.00
3160;BME280;1591;51.486;7.146;2022-07-29T10:25:41;72549.28;;;19.34;100.00
3160;BME280;1591;51.486;7.146;2022-07-29T10:28:08;72551.31;;;19.41;100.00
3160;BME280;1591;51.486;7.146;2022-07-29T10:30:37;72564.84;;;19.45;100.00
3160;BME280;1591;51.486;7.146;2022-07-29T10:33:34;72564.66;;;19.52;100.00
3160;BME280;1591;51.486;7.146;2022-07-29T10:36:32;72576.63;;;19.58;100.00
3160;BME280;1591;51.486;7.146;2022-07-29T10:39:10;72575.72;;;19.62;100.00
3160;BME280;1591;51.486;7.146;2022-07-29T10:41:56;72586.63;;;19.69;100.00
3160;BME280;1591;51.486;7.146;2022-07-29T10:44:28;72595.34;;;19.76;100.00
3160;BME280;1591;51.486;7.146;2022-07-29T10:46:55;72598.25;;;19.79;100.00
3160;BME280;1591;51.486;7.146;2022-07-29T10:49:27;72598.13;;;19.76;100.00
3160;BME280;1591;51.486;7.146;2022-07-29T10:52:02;72580.38;;;19.66;100.00
3160;BME280;1591;51.486;7.146;2022-07-29T10:54:41;72578.94;;;19.60;100.00
3160;BME280;1591;51.486;7.146;2022-07-29T10:57:23;72561.50;;;19.45;100.00
3160;BME280;1591;51.486;7.146;2022-07-29T11:00:27;72555.22;;;19.42;100.00
3160;BME280;1591;51.486;7.146;2022-07-29T11:02:54;72563.38;;;19.49;100.00
3160;BME280;1591;51.486;7.146;2022-07-29T11:05:26;72560.59;;;19.49;100.00
3160;BME280;1591;51.486;7.146;2022-07-29T11:08:21;72575.47;;;19.47;100.00
3160;BME280;1591;51.486;7.146;2022-07-29T11:10:51;72565.00;;;19.48;100.00
3160;BME280;1591;51.486;7.146;2022-07-29T11:13:50;72568.16;;;19.55;100.00
3160;BME280;1591;51.486;7.146;2022-07-29T11:16:19;72588.22;;;19.68;100.00
3160;BME280;1591;51.486;7.146;2022-07-29T11:19:19;72602.91;;;19.83;100.00
3160;BME280;1591;51.486;7.146;2022-07-29T11:21:49;72617.13;;;20.00;100.00
3160;BME280;1591;51.486;7.146;2022-07-29T11:24:19;72646.66;;;20.23;100.00
3160;BME280;1591;51.486;7.146;2022-07-29T11:27:26;72686.78;;;20.58;100.00
3160;BME280;1591;51.486;7.146;2022-07-29T11:30:06;72708.16;;;20.74;100.00
3160;BME280;1591;51.486;7.146;2022-07-29T11:32:37;72733.31;;;20.98;100.00
3160;BME280;1591;51.486;7.146;2022-07-29T11:35:13;72762.75;;;21.19;100.00
3160;BME280;1591;51.486;7.146;2022-07-29T11:37:42;72788.34;;;21.41;100.00
3160;BME280;1591;51.486;7.146;2022-07-29T11:40:16;72796.50;;;21.48;100.00
3160;BME280;1591;51.486;7.146;2022-07-29T11:42:49;72810.47;;;21.60;100.00
3160;BME280;1591;51.486;7.146;2022-07-29T11:45:25;72814.22;;;21.68;100.00
3160;BME280;1591;51.486;7.146;2022-07-29T11:47:59;72824.69;;;21.77;100.00
3160;BME280;1591;51.486;7.146;2022-07-29T11:50:44;72820.50;;;21.71;100.00
3160;BME280;1591;51.486;7.146;2022-07-29T11:53:14;72843.66;;;21.89;100.00
3160;BME280;1591;51.486;7.146;2022-07-29T11:55:42;72860.34;;;22.10;100.00
3160;BME280;1591;51.486;7.146;2022-07-29T11:58:09;72895.16;;;22.38;100.00
3160;BME280;1591;51.486;7.146;2022-07-29T12:00:38;72910.31;;;22.51;100.00
3160;BME280;1591;51.486;7.146;2022-07-29T12:03:08;72926.06;;;22.65;100.00
3160;BME280;1591;51.486;7.146;2022-07-29T12:05:40;72951.69;;;22.87;100.00
3160;BME280;1591;51.486;7.146;2022-07-29T12:08:14;72936.28;;;22.69;100.00
3160;BME280;1591;51.486;7.146;2022-07-29T12:10:55;72937.19;;;22.65;100.00
3160;BME280;1591;51.486;7.146;2022-07-29T12:13:24;72903.34;;;22.45;100.00
3160;BME280;1591;51.486;7.146;2022-07-29T12:15:53;72888.06;;;22.30;100.00
3160;BME280;1591;51.486;7.146;2022-07-29T12:18:25;72888.50;;;22.28;100.00
3160;BME280;1591;51.486;7.146;2022-07-29T12:20:58;72905.84;;;22.40;100.00
3160;BME280;1591;51.486;7.146;2022-07-29T12:23:29;72929.56;;;22.68;100.00
3160;BME280;1591;51.486;7.146;2022-07-29T12:25:58;72962.44;;;23.01;100.00
3160;BME280;1591;51.486;7.146;2022-07-29T12:28:26;72988.28;;;23.16;100.00
3160;BME280;1591;51.486;7.146;2022-07-29T12:30:54;72960.56;;;22.97;100.00
3160;BME280;1591;51.486;7.146;2022-07-29T12:33:27;72959.38;;;22.96;100.00
3160;BME280;1591;51.486;7.146;2022-07-29T12:35:59;72983.03;;;23.12;100.00
3160;BME280;1591;51.486;7.146;2022-07-29T12:38:29;73013.47;;;23.40;100.00
3160;BME280;1591;51.486;7.146;2022-07-29T12:40:57;73014.44;;;23.48;100.00
3160;BME280;1591;51.486;7.146;2022-07-29T12:43:26;73050.31;;;23.75;100.00
3160;BME280;1591;51.486;7.146;2022-07-29T12:45:57;73081.78;;;24.02;100.00
3160;BME280;1591;51.486;7.146;2022-07-29T12:48:34;73087.84;;;24.00;100.00
3160;BME280;1591;51.486;7.146;2022-07-29T12:51:04;73089.28;;;24.06;100.00
3160;BME280;1591;51.486;7.146;2022-07-29T12:53:34;73095.94;;;24.16;100.00
3160;BME280;1591;51.486;7.146;2022-07-29T12:56:05;73084.28;;;24.06;100.00
3160;BME280;1591;51.486;7.146;2022-07-29T12:58:36;73059.38;;;23.78;100.00
3160;BME280;1591;51.486;7.146;2022-07-29T13:01:09;73030.50;;;23.57;100.00
3160;BME280;1591;51.486;7.146;2022-07-29T13:03:53;73067.41;;;23.82;100.00
3160;BME280;1591;51.486;7.146;2022-07-29T13:06:36;73082.72;;;23.98;100.00
3160;BME280;1591;51.486;7.146;2022-07-29T13:09:13;73091.13;;;24.10;100.00
3160;BME280;1591;51.486;7.146;2022-07-29T13:11:43;73101.19;;;24.21;100.00
3160;BME280;1591;51.486;7.146;2022-07-29T13:14:13;73127.75;;;24.39;100.00
3160;BME280;1591;51.486;7.146;2022-07-29T13:17:03;73150.38;;;24.56;100.00
3160;BME280;1591;51.486;7.146;2022-07-29T13:19:36;73146.41;;;24.55;100.00
3160;BME280;1591;51.486;7.146;2022-07-29T13:22:06;73163.44;;;24.72;100.00
3160;BME280;1591;51.486;7.146;2022-07-29T13:24:46;73205.34;;;25.06;100.00
3160;BME280;1591;51.486;7.146;2022-07-29T13:27:14;73218.78;;;25.17;100.00
3160;BME280;1591;51.486;7.146;2022-07-29T13:29:41;73215.28;;;25.14;100.00
3160;BME280;1591;51.486;7.146;2022-07-29T13:32:11;73216.44;;;25.15;100.00
3160;BME280;1591;51.486;7.146;2022-07-29T13:34:39;73180.97;;;24.87;100.00